Alley Springs, Missouri
Current Conditions -  °F | °C
As of 3:36 AM on Sunday 23 Nov 2014 (Local Time) from KUNO Reporting Station
Overcast Overcast  
Wind Chill: 53°   Ceiling: 3000
Heat Index: 53°   Visibility: 10mi
Dew Point: 48°   Wind: 8mph
Humidity: 83%   Direction: 140°SE
Pressure: 29.75"   Gusts: NA
Location:  37.1833°N, 91.4819°W
Report Text: KUNO 230936Z AUTO 14007KT 10SM OVC030 12/09 A2975 RMK AO2 T01170089
Loading
Personal Weather Stations






























Interactive Weather Map New forecast layout! Learn more

10-Day Weather Forecast

Advertisements
Track Severe Weather on mobile